createdAt,value
2022-12-18T00:01:34.978Z,87.26
2022-12-18T00:04:15.807Z,87.31
2022-12-18T00:06:42.763Z,86.98
2022-12-18T00:09:11.322Z,87.30
2022-12-18T00:11:38.047Z,87.14
2022-12-18T00:14:05.036Z,86.99
2022-12-18T00:16:33.431Z,86.86
2022-12-18T00:19:00.872Z,86.69
2022-12-18T00:21:29.335Z,86.73
2022-12-18T00:23:56.985Z,86.67
2022-12-18T00:26:26.489Z,86.67
2022-12-18T00:28:56.148Z,86.73
2022-12-18T00:31:25.226Z,87.07
2022-12-18T00:33:57.476Z,86.39
2022-12-18T00:36:28.121Z,86.62
2022-12-18T00:38:56.406Z,86.76
2022-12-18T00:41:42.883Z,86.31
2022-12-18T00:44:12.940Z,86.29
2022-12-18T00:46:40.214Z,86.03
2022-12-18T00:49:07.773Z,86.21
2022-12-18T00:51:34.646Z,86.03
2022-12-18T00:54:01.582Z,85.89
2022-12-18T00:56:28.258Z,85.49
2022-12-18T00:58:55.111Z,86.07
2022-12-18T01:01:22.024Z,86.16
2022-12-18T01:03:48.904Z,85.86
2022-12-18T01:06:17.692Z,85.42
2022-12-18T01:08:45.071Z,85.31
2022-12-18T01:11:16.428Z,84.91
2022-12-18T01:13:43.348Z,84.76
2022-12-18T01:16:13.201Z,85.09
2022-12-18T01:18:40.353Z,84.54
2022-12-18T01:21:09.125Z,83.65
2022-12-18T01:23:38.626Z,83.01
2022-12-18T01:26:11.237Z,83.13
2022-12-18T01:28:41.138Z,83.45
2022-12-18T01:31:13.694Z,83.80
2022-12-18T01:33:41.590Z,83.83
2022-12-18T01:36:15.433Z,83.69
2022-12-18T01:38:42.380Z,83.50
2022-12-18T01:41:10.057Z,82.66
2022-12-18T01:43:53.144Z,82.14
2022-12-18T01:46:23.097Z,81.73
2022-12-18T01:48:58.806Z,81.09
2022-12-18T01:51:30.086Z,81.26
2022-12-18T01:53:58.093Z,81.23
2022-12-18T01:56:24.835Z,81.11
2022-12-18T01:59:00.434Z,81.00
2022-12-18T02:01:27.706Z,80.56
2022-12-18T02:03:54.471Z,80.76
2022-12-18T02:06:40.232Z,80.72
2022-12-18T02:09:34.297Z,81.02
2022-12-18T02:12:16.486Z,80.96
2022-12-18T02:14:54.357Z,81.02
2022-12-18T02:17:37.082Z,80.74
2022-12-18T02:20:19.660Z,81.21
2022-12-18T02:23:16.418Z,80.94
2022-12-18T02:25:58.682Z,81.03
2022-12-18T02:28:31.677Z,81.59
2022-12-18T02:31:02.139Z,81.71
2022-12-18T02:33:31.410Z,82.15
2022-12-18T02:36:00.622Z,82.48
2022-12-18T02:38:30.206Z,83.12
2022-12-18T02:40:58.097Z,83.19
2022-12-18T02:43:24.865Z,82.89
2022-12-18T02:45:58.582Z,83.07
2022-12-18T02:48:35.891Z,83.58
2022-12-18T02:51:24.443Z,84.48
2022-12-18T02:54:09.710Z,85.42
2022-12-18T02:56:54.568Z,86.03
2022-12-18T02:59:37.412Z,86.66
2022-12-18T03:02:22.640Z,87.25
2022-12-18T03:05:06.561Z,88.15
2022-12-18T03:07:45.293Z,89.37
2022-12-18T03:10:17.289Z,90.39
2022-12-18T03:12:52.785Z,91.00
2022-12-18T03:15:35.309Z,91.26
2022-12-18T03:18:25.468Z,91.50
2022-12-18T03:20:56.978Z,91.52
2022-12-18T03:23:28.244Z,91.47
2022-12-18T03:26:04.373Z,91.21
2022-12-18T03:28:42.617Z,91.02
2022-12-18T03:31:11.700Z,90.56
2022-12-18T03:33:47.532Z,90.46
2022-12-18T03:36:15.350Z,89.94
2022-12-18T03:38:42.561Z,89.90
2022-12-18T03:41:23.864Z,89.44
2022-12-18T03:44:16.344Z,89.19
2022-12-18T03:47:03.575Z,88.22
2022-12-18T03:50:08.367Z,88.35
2022-12-18T03:52:54.555Z,88.14
2022-12-18T03:55:26.181Z,87.87
2022-12-18T03:57:59.344Z,88.26
2022-12-18T04:00:28.408Z,88.20
2022-12-18T04:03:02.330Z,87.83
2022-12-18T04:05:37.392Z,87.62
2022-12-18T04:08:05.546Z,87.67
2022-12-18T04:10:36.288Z,86.90
2022-12-18T04:13:03.534Z,86.50
2022-12-18T04:15:35.116Z,86.63
2022-12-18T04:18:03.896Z,86.62
2022-12-18T04:20:36.781Z,86.45
2022-12-18T04:23:03.787Z,86.41
2022-12-18T04:25:30.649Z,86.73
2022-12-18T04:28:06.032Z,86.77
2022-12-18T04:30:33.435Z,86.32
2022-12-18T04:33:00.393Z,86.32
2022-12-18T04:35:27.624Z,86.47
2022-12-18T04:37:55.430Z,86.21
2022-12-18T04:40:22.504Z,85.96
2022-12-18T04:42:49.624Z,85.95
2022-12-18T04:45:16.747Z,86.13
2022-12-18T04:47:43.444Z,86.11
2022-12-18T04:50:10.231Z,86.15
2022-12-18T04:52:36.980Z,86.18
2022-12-18T04:55:04.162Z,86.32
2022-12-18T04:57:33.667Z,86.78
2022-12-18T05:00:00.326Z,86.75
2022-12-18T05:02:27.238Z,86.33
2022-12-18T05:04:54.090Z,86.18
2022-12-18T05:07:20.764Z,85.93
2022-12-18T05:09:47.626Z,85.99
2022-12-18T05:12:14.322Z,86.08
2022-12-18T05:14:41.129Z,86.03
2022-12-18T05:17:07.973Z,86.04
2022-12-18T05:19:34.776Z,85.90
2022-12-18T05:22:02.194Z,85.74
2022-12-18T05:24:28.886Z,86.01
2022-12-18T05:26:55.591Z,86.12
2022-12-18T05:29:22.403Z,86.46
2022-12-18T05:31:49.228Z,86.55
2022-12-18T05:34:16.257Z,86.47
2022-12-18T05:36:43.164Z,86.26
2022-12-18T05:39:11.364Z,86.08
2022-12-18T05:41:38.282Z,85.80
2022-12-18T05:44:05.430Z,85.66
2022-12-18T05:46:32.723Z,85.73
2022-12-18T05:49:01.504Z,86.14
2022-12-18T05:51:28.453Z,86.57
2022-12-18T05:53:55.608Z,86.98
2022-12-18T05:56:23.627Z,87.38
2022-12-18T05:58:54.604Z,88.19
2022-12-18T06:01:24.421Z,88.38
2022-12-18T06:03:51.376Z,88.87
2022-12-18T06:06:21.201Z,89.11
2022-12-18T06:08:48.638Z,89.21
2022-12-18T06:11:22.410Z,88.44
2022-12-18T06:13:58.296Z,88.39
2022-12-18T06:16:27.951Z,87.97
2022-12-18T06:19:03.190Z,87.77
2022-12-18T06:21:30.925Z,88.16
2022-12-18T06:24:00.108Z,88.23
2022-12-18T06:26:28.467Z,88.20
2022-12-18T06:28:56.446Z,87.56
2022-12-18T06:31:23.528Z,87.70
2022-12-18T06:33:50.661Z,87.55
2022-12-18T06:36:17.735Z,87.53
2022-12-18T06:38:45.245Z,87.34
2022-12-18T06:41:17.917Z,87.06
2022-12-18T06:43:45.357Z,86.89
2022-12-18T06:46:12.540Z,86.58
2022-12-18T06:48:39.395Z,87.03
2022-12-18T06:51:06.206Z,87.10
2022-12-18T06:53:33.484Z,87.45
2022-12-18T06:56:09.917Z,87.88
2022-12-18T06:58:38.467Z,87.41
2022-12-18T07:01:07.775Z,86.82
2022-12-18T07:03:34.827Z,86.38
2022-12-18T07:06:01.665Z,85.93
2022-12-18T07:08:30.349Z,85.35
2022-12-18T07:10:57.621Z,85.43
2022-12-18T07:13:24.451Z,84.80
2022-12-18T07:15:51.149Z,84.43
2022-12-18T07:18:17.876Z,84.19
2022-12-18T07:20:45.261Z,83.38
2022-12-18T07:23:12.961Z,82.88
2022-12-18T07:25:40.128Z,82.32
2022-12-18T07:28:07.037Z,81.43
2022-12-18T07:30:33.887Z,80.91
2022-12-18T07:33:00.636Z,80.55
2022-12-18T07:35:27.582Z,79.79
2022-12-18T07:37:54.406Z,79.61
2022-12-18T07:40:21.316Z,79.49
2022-12-18T07:42:48.112Z,79.56
2022-12-18T07:45:14.902Z,78.78
2022-12-18T07:47:41.877Z,79.04
2022-12-18T07:50:09.228Z,78.73
2022-12-18T07:52:35.953Z,78.41
2022-12-18T07:55:03.092Z,78.10
2022-12-18T08:00:16.900Z,77.60
2022-12-18T08:02:43.741Z,77.26
2022-12-18T08:05:10.759Z,76.28
2022-12-18T08:07:38.043Z,75.92
2022-12-18T08:10:05.748Z,75.63
2022-12-18T08:12:33.023Z,75.80
2022-12-18T08:14:59.819Z,74.97
2022-12-18T08:17:26.484Z,75.12
2022-12-18T08:19:53.380Z,75.37
2022-12-18T08:22:20.308Z,75.63
2022-12-18T08:24:47.134Z,76.16
2022-12-18T08:27:28.858Z,76.12
2022-12-18T08:29:57.571Z,76.33
2022-12-18T08:32:25.779Z,75.91
2022-12-18T08:34:52.768Z,75.85
2022-12-18T08:37:19.636Z,76.04
2022-12-18T08:39:46.295Z,75.60
2022-12-18T08:42:31.773Z,75.71
2022-12-18T08:45:02.699Z,74.46
2022-12-18T08:47:29.518Z,73.72
2022-12-18T08:49:56.369Z,72.23
2022-12-18T08:52:23.032Z,71.07
2022-12-18T08:54:50.297Z,67.43
2022-12-18T08:57:17.120Z,67.01
2022-12-18T08:59:43.924Z,65.68
2022-12-18T09:02:12.163Z,65.40
2022-12-18T09:04:40.338Z,64.85
2022-12-18T09:07:07.376Z,61.71
2022-12-18T09:09:34.239Z,60.60
2022-12-18T09:12:01.031Z,59.35
2022-12-18T09:14:27.889Z,58.31
2022-12-18T09:16:54.528Z,54.76
2022-12-18T09:19:21.278Z,49.10
2022-12-18T09:21:48.583Z,44.74
2022-12-18T09:24:16.412Z,41.62
2022-12-18T09:26:46.872Z,40.73
2022-12-18T09:29:18.856Z,41.70
2022-12-18T09:31:47.314Z,41.09
2022-12-18T09:34:14.119Z,38.96
2022-12-18T09:36:40.841Z,39.54
2022-12-18T09:39:08.754Z,41.45
2022-12-18T09:41:47.637Z,42.40
2022-12-18T09:44:20.443Z,43.86
2022-12-18T09:47:19.405Z,45.09
2022-12-18T09:49:49.987Z,47.52
2022-12-18T09:52:26.855Z,48.20
2022-12-18T09:55:12.218Z,49.02
2022-12-18T09:57:48.132Z,49.78
2022-12-18T10:00:25.454Z,48.46
2022-12-18T10:02:56.955Z,47.43
2022-12-18T10:05:55.039Z,47.43
2022-12-18T10:08:54.161Z,45.38
2022-12-18T10:11:33.850Z,44.19
2022-12-18T10:14:38.809Z,44.35
2022-12-18T10:17:34.415Z,43.87
2022-12-18T10:20:16.589Z,44.47
2022-12-18T10:23:10.970Z,44.18
2022-12-18T10:26:08.434Z,43.17
2022-12-18T10:28:41.115Z,40.33
2022-12-18T10:31:17.441Z,39.19
2022-12-18T10:33:44.660Z,38.72
2022-12-18T10:36:11.989Z,37.64
2022-12-18T10:38:39.757Z,37.43
2022-12-18T10:41:12.065Z,38.52
2022-12-18T10:43:40.244Z,38.02
2022-12-18T10:46:09.761Z,38.24
2022-12-18T10:48:39.944Z,35.43
2022-12-18T10:51:12.088Z,31.44
2022-12-18T10:53:43.100Z,29.12
2022-12-18T10:56:10.173Z,29.64
2022-12-18T10:58:39.238Z,30.52
2022-12-18T11:01:18.118Z,30.16
2022-12-18T11:04:02.039Z,31.35
2022-12-18T11:06:32.969Z,32.72
2022-12-18T11:09:12.640Z,33.95
2022-12-18T11:11:41.396Z,33.22
2022-12-18T11:14:22.320Z,32.06
2022-12-18T11:19:41.646Z,28.35
2022-12-18T11:22:41.137Z,28.08
2022-12-18T11:25:34.488Z,27.31
2022-12-18T11:28:06.582Z,27.45
2022-12-18T11:30:37.471Z,28.93
2022-12-18T11:33:22.347Z,30.59
2022-12-18T11:36:05.166Z,31.00
2022-12-18T11:38:36.354Z,29.58
2022-12-18T11:41:03.012Z,29.75
2022-12-18T11:43:45.734Z,29.07
2022-12-18T11:46:19.995Z,28.19
2022-12-18T11:48:58.234Z,27.64
2022-12-18T11:51:42.259Z,27.16
2022-12-18T11:54:14.977Z,26.84
2022-12-18T11:56:46.469Z,27.04
2022-12-18T11:59:56.455Z,28.96
2022-12-18T12:02:49.853Z,31.77
2022-12-18T12:05:31.953Z,34.56
2022-12-18T12:08:12.184Z,36.39
2022-12-18T12:10:47.801Z,38.38
2022-12-18T12:13:39.093Z,39.71
2022-12-18T12:16:12.984Z,41.72
2022-12-18T12:19:14.313Z,43.00
2022-12-18T12:21:54.233Z,44.88
2022-12-18T12:24:39.921Z,45.66
2022-12-18T12:27:24.734Z,47.06
2022-12-18T12:30:08.806Z,48.42
2022-12-18T12:33:03.142Z,49.58
2022-12-18T12:35:35.725Z,49.96
2022-12-18T12:38:11.576Z,50.93
2022-12-18T12:40:53.943Z,51.49
2022-12-18T12:43:29.831Z,51.95
2022-12-18T12:46:14.574Z,52.27
2022-12-18T12:48:51.784Z,52.34
2022-12-18T12:51:40.626Z,53.08
2022-12-18T12:54:18.121Z,54.17
2022-12-18T12:57:14.911Z,54.48
2022-12-18T13:00:06.731Z,53.32
2022-12-18T13:02:40.373Z,55.29
2022-12-18T13:05:35.023Z,56.13
2022-12-18T13:08:07.141Z,56.17
2022-12-18T13:10:38.927Z,55.79
2022-12-18T13:13:21.167Z,56.68
2022-12-18T13:16:07.000Z,56.52
2022-12-18T13:18:35.093Z,56.22
2022-12-18T13:21:08.490Z,56.45
2022-12-18T13:23:39.928Z,57.24
2022-12-18T13:26:10.265Z,57.05
2022-12-18T13:28:46.682Z,57.30
2022-12-18T13:31:15.454Z,57.67
2022-12-18T13:34:16.647Z,57.84
2022-12-18T13:36:34.215Z,57.55
2022-12-18T13:39:12.276Z,57.37
2022-12-18T13:41:39.790Z,57.82
2022-12-18T13:44:20.654Z,57.63
2022-12-18T13:46:51.542Z,57.86
2022-12-18T13:49:30.879Z,59.46
2022-12-18T13:51:57.857Z,59.58
2022-12-18T13:54:36.220Z,59.97
2022-12-18T13:57:05.211Z,60.18
2022-12-18T13:59:37.503Z,60.51
2022-12-18T14:02:25.548Z,61.36
2022-12-18T14:04:54.089Z,61.39
2022-12-18T14:07:33.086Z,61.56
2022-12-18T14:10:41.793Z,61.76
2022-12-18T14:13:07.302Z,61.54
2022-12-18T14:15:35.992Z,61.22
2022-12-18T14:18:26.149Z,62.05
2022-12-18T14:20:57.231Z,62.26
2022-12-18T14:23:30.636Z,62.48
2022-12-18T14:26:02.101Z,62.98
2022-12-18T14:28:32.684Z,63.23
2022-12-18T14:30:59.586Z,63.79
2022-12-18T14:33:28.308Z,64.00
2022-12-18T14:36:06.108Z,64.73
2022-12-18T14:38:32.769Z,65.50
2022-12-18T14:41:14.185Z,65.73
2022-12-18T14:43:43.646Z,66.25
2022-12-18T14:46:37.333Z,67.41
2022-12-18T14:49:33.636Z,67.53
2022-12-18T14:52:06.174Z,68.30
2022-12-18T14:54:37.439Z,69.14
2022-12-18T14:57:05.690Z,69.31
2022-12-18T14:59:33.275Z,70.47
2022-12-18T15:02:24.175Z,71.31
2022-12-18T15:05:05.166Z,71.46
2022-12-18T15:07:49.118Z,71.66
2022-12-18T15:10:20.587Z,72.41
2022-12-18T15:13:06.765Z,72.42
2022-12-18T15:15:34.037Z,72.63
2022-12-18T15:18:03.912Z,72.97
2022-12-18T15:20:33.551Z,72.91
2022-12-18T15:23:00.425Z,72.84
2022-12-18T15:25:37.629Z,72.16
2022-12-18T15:28:16.374Z,71.28
2022-12-18T15:30:59.051Z,71.10
2022-12-18T15:33:30.152Z,70.27
2022-12-18T15:36:02.144Z,70.32
2022-12-18T15:38:28.968Z,70.50
2022-12-18T15:40:55.860Z,70.97
2022-12-18T15:43:37.045Z,70.92
2022-12-18T15:46:11.461Z,70.61
2022-12-18T15:48:41.898Z,69.79
2022-12-18T15:51:21.932Z,70.06
2022-12-18T15:53:52.868Z,70.00
2022-12-18T15:56:39.025Z,69.61
2022-12-18T15:59:12.433Z,69.66
2022-12-18T16:01:42.693Z,70.01
2022-12-18T16:04:13.431Z,70.37
2022-12-18T16:07:05.668Z,70.46
2022-12-18T16:09:27.398Z,70.00
2022-12-18T16:11:54.472Z,70.03
2022-12-18T16:14:24.224Z,70.15
2022-12-18T16:17:03.008Z,69.89
2022-12-18T16:19:30.573Z,70.36
2022-12-18T16:21:59.090Z,70.31
2022-12-18T16:24:29.305Z,71.30
2022-12-18T16:26:59.571Z,72.40
2022-12-18T16:29:27.939Z,72.24
2022-12-18T16:31:56.120Z,72.81
2022-12-18T16:34:28.851Z,73.86
2022-12-18T16:37:05.158Z,73.35
2022-12-18T16:39:37.487Z,73.80
2022-12-18T16:42:16.673Z,74.31
2022-12-18T16:44:44.213Z,74.68
2022-12-18T16:47:11.376Z,74.89
2022-12-18T16:49:44.770Z,75.06
2022-12-18T16:52:13.720Z,75.54
2022-12-18T16:54:40.669Z,76.09
2022-12-18T16:57:12.483Z,75.40
2022-12-18T16:59:39.313Z,75.56
2022-12-18T17:02:14.893Z,75.25
2022-12-18T17:04:42.919Z,75.36
2022-12-18T17:07:10.563Z,75.18
2022-12-18T17:09:38.534Z,76.01
2022-12-18T17:12:05.994Z,76.03
2022-12-18T17:14:33.294Z,75.97
2022-12-18T17:17:20.495Z,76.60
2022-12-18T17:19:47.351Z,76.44
2022-12-18T17:22:14.057Z,76.25
2022-12-18T17:24:40.757Z,76.08
2022-12-18T17:27:08.312Z,76.68
2022-12-18T17:29:35.558Z,76.70
2022-12-18T17:32:02.510Z,76.79
2022-12-18T17:34:30.115Z,76.54
2022-12-18T17:36:57.785Z,76.40
2022-12-18T17:39:25.240Z,76.66
2022-12-18T17:41:52.149Z,75.94
2022-12-18T17:44:18.867Z,75.59
2022-12-18T17:46:46.336Z,75.94
2022-12-18T17:49:13.416Z,76.48
2022-12-18T17:51:42.322Z,76.02
2022-12-18T17:54:09.596Z,76.53
2022-12-18T17:56:36.503Z,76.39
2022-12-18T17:59:03.294Z,76.11
2022-12-18T18:01:30.116Z,76.66
2022-12-18T18:03:57.117Z,76.82
2022-12-18T18:06:24.252Z,77.03
2022-12-18T18:08:51.566Z,77.25
2022-12-18T18:11:40.016Z,77.20
2022-12-18T18:14:13.199Z,77.29
2022-12-18T18:16:42.916Z,76.91
2022-12-18T18:19:14.123Z,76.89
2022-12-18T18:21:43.304Z,77.37
2022-12-18T18:24:13.473Z,77.12
2022-12-18T18:26:41.179Z,76.65
2022-12-18T18:29:08.566Z,76.77
2022-12-18T18:31:40.847Z,76.99
2022-12-18T18:34:14.790Z,76.84
2022-12-18T18:36:41.751Z,76.80
2022-12-18T18:39:09.055Z,76.99
2022-12-18T18:41:37.513Z,77.33
2022-12-18T18:44:04.345Z,77.14
2022-12-18T18:46:31.064Z,76.80
2022-12-18T18:48:57.853Z,76.83
2022-12-18T18:51:25.671Z,76.30
2022-12-18T18:53:54.629Z,76.02
2022-12-18T18:59:09.763Z,75.72
2022-12-18T19:01:36.579Z,75.19
2022-12-18T19:04:05.034Z,75.60
2022-12-18T19:06:32.383Z,75.18
2022-12-18T19:09:01.932Z,75.65
2022-12-18T19:11:47.384Z,75.99
2022-12-18T19:14:15.150Z,75.73
2022-12-18T19:16:44.331Z,76.02
2022-12-18T19:19:12.377Z,76.06
2022-12-18T19:21:39.525Z,76.21
2022-12-18T19:24:06.668Z,75.69
2022-12-18T19:26:33.791Z,75.45
2022-12-18T19:29:05.153Z,75.80
2022-12-18T19:31:35.517Z,76.02
2022-12-18T19:34:06.084Z,76.37
2022-12-18T19:36:35.139Z,76.64
2022-12-18T19:39:10.984Z,76.53
2022-12-18T19:41:39.346Z,76.12
2022-12-18T19:44:08.091Z,76.31
2022-12-18T19:46:35.901Z,76.39
2022-12-18T19:49:02.911Z,76.52
2022-12-18T19:51:31.732Z,76.70
2022-12-18T19:54:01.732Z,76.32
2022-12-18T19:56:31.334Z,76.62
2022-12-18T19:58:58.607Z,76.77
2022-12-18T20:01:27.227Z,77.02
2022-12-18T20:03:55.199Z,77.02
2022-12-18T20:06:46.036Z,76.75
2022-12-18T20:09:12.783Z,76.68
2022-12-18T20:11:42.046Z,76.84
2022-12-18T20:14:11.321Z,76.89
2022-12-18T20:16:38.147Z,76.70
2022-12-18T20:19:05.620Z,77.01
2022-12-18T20:21:32.743Z,76.79
2022-12-18T20:24:00.683Z,76.72
2022-12-18T20:26:27.565Z,76.66
2022-12-18T20:28:54.837Z,76.10
2022-12-18T20:31:22.345Z,75.94
2022-12-18T20:33:49.920Z,75.97
2022-12-18T20:36:22.542Z,76.20
2022-12-18T20:38:57.174Z,76.23
2022-12-18T20:41:26.154Z,76.00
2022-12-18T20:43:55.075Z,76.14
2022-12-18T20:46:21.966Z,75.30
2022-12-18T20:48:48.732Z,74.75
2022-12-18T20:51:19.408Z,75.09
2022-12-18T20:53:47.390Z,74.58
2022-12-18T20:56:21.150Z,74.46
2022-12-18T20:58:50.005Z,74.89
2022-12-18T21:01:20.135Z,74.12
2022-12-18T21:03:47.756Z,74.30
2022-12-18T21:06:17.893Z,73.91
2022-12-18T21:08:44.790Z,73.64
2022-12-18T21:11:32.213Z,74.05
2022-12-18T21:13:59.907Z,74.73
2022-12-18T21:16:26.701Z,74.32
2022-12-18T21:18:54.466Z,74.80
2022-12-18T21:21:26.367Z,75.16
2022-12-18T21:23:53.948Z,74.99
2022-12-18T21:26:25.879Z,74.35
2022-12-18T21:28:55.169Z,73.91
2022-12-18T21:31:24.408Z,72.43
2022-12-18T21:33:51.914Z,71.47
2022-12-18T21:36:19.968Z,71.43
2022-12-18T21:38:46.676Z,71.57
2022-12-18T21:41:37.521Z,71.84
2022-12-18T21:44:11.375Z,71.86
2022-12-18T21:46:40.384Z,72.81
2022-12-18T21:49:08.240Z,73.32
2022-12-18T21:51:36.189Z,73.78
2022-12-18T21:54:03.815Z,74.17
2022-12-18T21:56:47.717Z,74.07
2022-12-18T21:59:19.329Z,74.35
2022-12-18T22:01:47.346Z,74.37
2022-12-18T22:04:15.475Z,75.27
2022-12-18T22:06:42.588Z,75.96
2022-12-18T22:09:11.748Z,76.38
2022-12-18T22:11:38.545Z,76.33
2022-12-18T22:14:05.901Z,76.61
2022-12-18T22:16:32.693Z,76.57
2022-12-18T22:18:59.353Z,76.83
2022-12-18T22:21:31.331Z,76.73
2022-12-18T22:24:00.578Z,76.57
2022-12-18T22:26:33.879Z,76.67
2022-12-18T22:29:23.683Z,75.84
2022-12-18T22:31:50.511Z,75.62
2022-12-18T22:34:20.650Z,75.24
2022-12-18T22:36:50.253Z,74.44
2022-12-18T22:39:23.048Z,74.43
2022-12-18T22:41:50.067Z,74.68
2022-12-18T22:44:18.122Z,75.34
2022-12-18T22:46:47.782Z,75.76
2022-12-18T22:49:23.158Z,75.95
2022-12-18T22:51:51.096Z,75.73
2022-12-18T22:54:18.152Z,75.81
2022-12-18T22:56:45.232Z,75.95
2022-12-18T22:59:19.367Z,76.33
2022-12-18T23:01:47.968Z,76.92
2022-12-18T23:04:16.871Z,76.99
2022-12-18T23:06:44.884Z,77.44
2022-12-18T23:09:17.866Z,77.14
2022-12-18T23:11:46.140Z,76.84
2022-12-18T23:14:13.026Z,76.54
2022-12-18T23:16:39.861Z,76.52
2022-12-18T23:19:07.496Z,76.35
2022-12-18T23:21:34.652Z,76.14
2022-12-18T23:24:02.683Z,76.03
2022-12-18T23:26:29.441Z,75.98
2022-12-18T23:28:56.373Z,75.76
2022-12-18T23:31:26.472Z,75.36
2022-12-18T23:33:55.628Z,75.76
2022-12-18T23:36:23.172Z,75.24
2022-12-18T23:38:55.149Z,75.22
2022-12-18T23:41:24.386Z,75.61
2022-12-18T23:43:51.553Z,75.51
2022-12-18T23:46:21.467Z,76.22
2022-12-18T23:48:48.993Z,76.16
2022-12-18T23:51:17.059Z,76.26
2022-12-18T23:53:44.711Z,76.62
2022-12-18T23:56:14.035Z,76.81
2022-12-18T23:58:42.477Z,76.22
